Time;durP1;ratioP1;P1;durP2;ratioP2;P2;SDS_P1;SDS_P2;PMS_P1;PMS_P2;Temp;Humidity;BMP_temperature;BMP_pressure;BME280_temperature;BME280_humidity;BME280_pressure;Samples;Min_cycle;Max_cycle;Signal;HPM_P1;HPM_P2
2022/11/06 00:00:09;;;;;;;14.80;11.10;;;;;;;7.28;100.00;96912.42;105692;1289;22466;-80
2022/11/06 00:03:01;;;;;;;11.80;9.90;;;;;;;7.30;100.00;96915.40;105681;1276;22468;-80
2022/11/06 00:08:31;;;;;;;12.40;10.90;;;;;;;7.27;100.00;96918.06;105587;1278;22453;-79
2022/11/06 00:11:00;;;;;;;;;;;;;;;7.24;100.00;96918.68;105765;1275;22446;-79
2022/11/06 00:13:31;;;;;;;13.70;11.60;;;;;;;7.24;100.00;96914.99;105659;1281;22522;-79
2022/11/06 00:16:06;;;;;;;15.90;10.90;;;;;;;7.25;100.00;96918.90;105708;1274;22463;-79
2022/11/06 00:18:38;;;;;;;14.90;11.40;;;;;;;7.25;100.00;96921.70;105628;1288;22462;-79
2022/11/06 00:21:12;;;;;;;15.30;12.00;;;;;;;7.26;100.00;96918.17;105680;1297;22514;-79
2022/11/06 00:23:45;;;;;;;18.20;13.40;;;;;;;7.29;100.00;96919.98;105758;1293;22449;-79
2022/11/06 00:26:18;;;;;;;14.60;12.10;;;;;;;7.32;100.00;96921.95;105668;1297;22445;-79
2022/11/06 00:28:52;;;;;;;15.40;11.60;;;;;;;7.29;100.00;96915.70;105629;1289;22743;-79
2022/11/06 00:31:25;;;;;;;16.90;12.40;;;;;;;7.26;100.00;96922.08;105644;1296;22453;-79
2022/11/06 00:33:58;;;;;;;16.00;12.10;;;;;;;7.27;100.00;96922.08;105672;1285;22564;-79
2022/11/06 00:36:31;;;;;;;14.90;11.20;;;;;;;7.28;100.00;96920.50;105511;1297;241707;-79
2022/11/06 00:39:02;;;;;;;17.90;13.00;;;;;;;7.27;100.00;96924.92;105632;1285;23539;-79
2022/11/06 00:41:35;;;;;;;19.90;14.30;;;;;;;7.25;100.00;96924.33;105636;1271;22466;-79
2022/11/06 00:44:07;;;;;;;16.40;12.90;;;;;;;7.22;100.00;96929.05;105662;1297;22465;-79
2022/11/06 00:46:38;;;;;;;17.20;13.70;;;;;;;7.20;100.00;96931.20;105644;1281;22458;-79
2022/11/06 00:49:09;;;;;;;19.40;14.50;;;;;;;7.19;100.00;96929.66;105623;1291;25331;-79
2022/11/06 00:51:41;;;;;;;18.90;15.10;;;;;;;7.19;100.00;96926.06;105599;1300;22498;-79
2022/11/06 00:54:13;;;;;;;19.20;15.10;;;;;;;7.17;100.00;96925.41;105663;1298;22456;-79
2022/11/06 00:56:44;;;;;;;20.20;15.40;;;;;;;7.14;100.00;96929.23;105652;1299;22464;-79
2022/11/06 00:59:16;;;;;;;17.30;14.20;;;;;;;7.10;100.00;96929.03;105557;1291;22455;-79
2022/11/06 01:01:47;;;;;;;20.20;15.10;;;;;;;7.09;100.00;96924.23;105642;1283;22463;-79
2022/11/06 01:04:20;;;;;;;20.20;15.60;;;;;;;7.10;100.00;96921.70;105594;1284;22452;-79
2022/11/06 01:06:55;;;;;;;20.60;16.30;;;;;;;7.09;100.00;96923.70;105604;1292;22926;-79
2022/11/06 01:09:28;;;;;;;19.10;14.70;;;;;;;7.07;100.00;96919.05;105609;1281;22457;-79
2022/11/06 01:12:00;;;;;;;16.70;12.90;;;;;;;7.06;100.00;96923.10;105640;1297;22474;-79
2022/11/06 01:14:31;;;;;;;18.50;13.80;;;;;;;7.06;100.00;96926.47;105662;1285;22473;-79
2022/11/06 01:17:05;;;;;;;18.00;14.30;;;;;;;7.06;100.00;96932.59;105636;1297;22437;-79
2022/11/06 01:19:36;;;;;;;19.70;12.70;;;;;;;7.07;100.00;96934.55;105630;1291;22472;-79
2022/11/06 01:22:08;;;;;;;15.40;9.90;;;;;;;7.06;100.00;96936.96;105653;1297;22443;-79
2022/11/06 01:24:39;;;;;;;19.90;13.60;;;;;;;7.06;100.00;96937.55;105690;1298;25359;-79
2022/11/06 01:27:11;;;;;;;19.20;13.20;;;;;;;7.05;100.00;96936.64;105564;1290;25250;-79
2022/11/06 01:29:43;;;;;;;18.40;13.50;;;;;;;7.06;100.00;96940.34;105669;1297;25506;-79
2022/11/06 01:32:14;;;;;;;17.60;13.50;;;;;;;7.08;100.00;96937.92;105658;1291;22454;-79
2022/11/06 01:34:46;;;;;;;19.50;13.80;;;;;;;7.11;100.00;96937.27;105627;1291;22471;-79
2022/11/06 01:37:17;;;;;;;21.70;14.50;;;;;;;7.12;100.00;96935.59;105620;1282;22449;-78
2022/11/06 01:39:48;;;;;;;17.20;14.60;;;;;;;7.12;100.00;96931.74;105681;1297;23013;-78
2022/11/06 01:42:24;;;;;;;20.80;15.00;;;;;;;7.12;100.00;96928.31;105666;1289;22467;-79
2022/11/06 01:45:24;;;;;;;20.00;13.10;;;;;;;7.09;100.00;96929.71;105647;1289;26602;-79
2022/11/06 01:47:55;;;;;;;19.20;15.30;;;;;;;7.05;100.00;96932.68;105618;1289;22665;-79
2022/11/06 01:50:27;;;;;;;19.10;14.20;;;;;;;7.03;100.00;96932.31;105655;1297;22557;-79
2022/11/06 01:53:01;;;;;;;22.10;14.70;;;;;;;7.02;100.00;96936.15;105662;1289;22550;-78
2022/11/06 01:55:35;;;;;;;23.40;15.30;;;;;;;7.02;100.00;96939.91;105660;1296;22612;-78
2022/11/06 01:58:11;;;;;;;19.80;14.70;;;;;;;7.03;100.00;96935.70;105636;1284;22456;-79
2022/11/06 02:00:43;;;;;;;21.20;15.20;;;;;;;7.05;100.00;96936.80;105625;1289;22806;-79
2022/11/06 02:03:14;;;;;;;22.70;13.60;;;;;;;7.08;100.00;96936.92;105648;1292;22466;-78
2022/11/06 02:05:46;;;;;;;20.00;14.10;;;;;;;7.09;100.00;96943.58;105671;1276;25257;-79
2022/11/06 02:08:19;;;;;;;22.80;13.40;;;;;;;7.10;100.00;96944.44;105616;1275;22469;-79
2022/11/06 02:10:51;;;;;;;17.00;11.80;;;;;;;7.09;100.00;96944.15;105692;1296;22462;-78
2022/11/06 02:13:35;;;;;;;20.10;15.00;;;;;;;7.07;100.00;96947.09;105683;1276;22481;-79
2022/11/06 02:16:14;;;;;;;22.40;16.10;;;;;;;7.01;100.00;96947.68;105658;1297;22444;-79
2022/11/06 02:19:16;;;;;;;20.80;15.80;;;;;;;6.98;100.00;96953.25;105652;1288;22613;-79
2022/11/06 02:22:05;;;;;;;25.50;15.40;;;;;;;7.01;100.00;96955.45;105551;1287;25536;-79
2022/11/06 02:25:01;;;;;;;19.00;14.30;;;;;;;6.99;100.00;96956.90;105666;1289;24392;-79
2022/11/06 02:27:34;;;;;;;18.70;13.80;;;;;;;6.98;100.00;96955.09;105613;1297;23833;-79
2022/11/06 02:30:08;;;;;;;20.10;13.50;;;;;;;7.00;100.00;96954.17;105629;1292;22459;-79
2022/11/06 02:32:44;;;;;;;18.20;12.90;;;;;;;7.02;100.00;96952.45;105651;1283;22477;-79
2022/11/06 02:35:22;;;;;;;22.00;16.70;;;;;;;6.99;100.00;96947.05;105634;1285;22509;-79
2022/11/06 02:37:58;;;;;;;21.90;16.20;;;;;;;6.97;100.00;96950.66;105583;1291;22469;-79
2022/11/06 02:40:34;;;;;;;18.50;14.30;;;;;;;6.93;100.00;96951.26;105629;1275;22482;-79
2022/11/06 02:43:07;;;;;;;20.00;14.90;;;;;;;6.93;100.00;96954.36;105651;1300;22653;-79
2022/11/06 02:45:49;;;;;;;21.50;16.00;;;;;;;6.91;100.00;96953.39;105677;1291;22458;-79
2022/11/06 02:48:24;;;;;;;19.90;14.90;;;;;;;6.88;100.00;96958.13;105575;1283;24470;-79
2022/11/06 02:50:58;;;;;;;20.40;15.30;;;;;;;6.86;100.00;96958.85;105614;1300;22456;-79
2022/11/06 02:53:31;;;;;;;21.20;15.60;;;;;;;6.89;100.00;96959.35;105626;1282;25290;-79
2022/11/06 02:56:07;;;;;;;21.00;15.40;;;;;;;6.91;100.00;96962.02;105635;1290;25353;-79
2022/11/06 02:58:44;;;;;;;19.00;15.70;;;;;;;6.92;100.00;96965.11;105578;1297;22605;-79
2022/11/06 03:01:19;;;;;;;18.40;14.10;;;;;;;6.91;100.00;96963.00;105677;1289;22457;-79
2022/11/06 03:03:56;;;;;;;20.70;15.80;;;;;;;6.89;100.00;96962.91;105659;1285;25369;-79
2022/11/06 03:06:34;;;;;;;19.90;15.40;;;;;;;6.88;100.00;96963.92;105668;1297;23819;-79
2022/11/06 03:09:09;;;;;;;20.50;15.60;;;;;;;6.88;100.00;96963.88;105649;1284;22451;-79
2022/11/06 03:11:41;;;;;;;22.80;16.90;;;;;;;6.89;100.00;96962.63;105650;1284;25480;-79
2022/11/06 03:14:18;;;;;;;19.50;15.00;;;;;;;6.89;100.00;96963.25;105640;1300;22453;-79
2022/11/06 03:16:57;;;;;;;19.60;14.70;;;;;;;6.89;100.00;96961.52;105647;1284;23954;-79
2022/11/06 03:19:35;;;;;;;21.80;14.30;;;;;;;6.88;100.00;96962.05;105642;1297;22492;-79
2022/11/06 03:22:12;;;;;;;24.30;16.00;;;;;;;6.87;100.00;96962.55;105663;1297;25449;-79
2022/11/06 03:24:48;;;;;;;20.90;15.90;;;;;;;6.88;100.00;96967.52;105695;1297;22525;-79
2022/11/06 03:27:24;;;;;;;22.70;15.20;;;;;;;6.88;100.00;96967.52;105614;1297;22466;-79
2022/11/06 03:30:03;;;;;;;21.30;14.60;;;;;;;6.87;100.00;96969.66;105641;1297;22449;-79
2022/11/06 03:32:38;;;;;;;23.20;15.90;;;;;;;6.85;100.00;96972.55;105670;1292;22486;-79
2022/11/06 03:35:15;;;;;;;18.20;14.40;;;;;;;6.86;100.00;96978.77;105578;1284;22464;-79
2022/11/06 03:37:53;;;;;;;19.80;15.80;;;;;;;6.85;100.00;96980.14;105585;1297;22566;-79
2022/11/06 03:40:27;;;;;;;18.70;12.70;;;;;;;6.86;100.00;96978.05;105646;1289;22491;-79
2022/11/06 03:43:03;;;;;;;19.90;13.60;;;;;;;6.85;100.00;96983.89;105706;1274;22474;-79
2022/11/06 03:45:36;;;;;;;19.50;13.70;;;;;;;6.88;100.00;96981.23;105639;1297;22477;-79
2022/11/06 03:48:14;;;;;;;16.80;14.00;;;;;;;6.93;100.00;96980.34;105605;1297;25609;-79
2022/11/06 03:50:51;;;;;;;18.60;13.80;;;;;;;6.97;100.00;96978.49;105628;1296;22469;-79
2022/11/06 03:53:27;;;;;;;17.20;13.20;;;;;;;7.00;100.00;96984.90;105685;1296;22822;-79
2022/11/06 03:56:04;;;;;;;20.90;12.40;;;;;;;7.02;100.00;96985.13;105686;1286;25452;-79
2022/11/06 03:58:41;;;;;;;20.10;15.90;;;;;;;6.98;100.00;96984.14;105603;1282;22451;-80
2022/11/06 04:01:15;;;;;;;19.00;14.90;;;;;;;6.95;100.00;96989.11;105644;1300;22447;-79
2022/11/06 04:03:49;;;;;;;23.20;14.30;;;;;;;6.91;100.00;96982.42;105718;1292;22451;-79
2022/11/06 04:06:25;;;;;;;18.60;14.00;;;;;;;6.89;100.00;96983.70;105631;1300;22443;-79
2022/11/06 04:14:45;;;;;;;20.80;15.80;;;;;;;6.84;100.00;96978.30;105625;1290;22456;-79
2022/11/06 04:17:17;;;;;;;23.10;16.30;;;;;;;6.83;100.00;96983.12;105617;1299;22463;-79
2022/11/06 04:19:52;;;;;;;23.20;17.30;;;;;;;6.82;100.00;96981.16;105668;1300;26521;-79
2022/11/06 04:22:43;;;;;;;22.90;17.00;;;;;;;6.83;100.00;96982.23;105628;1298;22460;-79
2022/11/06 04:28:28;;;;;;;24.00;15.40;;;;;;;6.88;100.00;96982.96;105580;1288;25723;-79
2022/11/06 04:31:07;;;;;;;24.20;16.50;;;;;;;6.90;100.00;96979.00;105598;1300;22456;-79
2022/11/06 04:33:45;;;;;;;23.70;16.60;;;;;;;6.89;100.00;96980.30;105682;1298;22457;-79
2022/11/06 04:36:22;;;;;;;24.90;17.20;;;;;;;6.87;100.00;96982.73;105629;1291;22489;-79
2022/11/06 04:39:05;;;;;;;20.80;17.30;;;;;;;6.88;100.00;96981.16;105614;1297;22519;-80
2022/11/06 04:41:45;;;;;;;23.50;16.10;;;;;;;6.87;100.00;96984.80;105669;1291;22456;-79
2022/11/06 04:44:24;;;;;;;21.70;15.90;;;;;;;6.88;100.00;96986.34;105665;1275;23233;-79
2022/11/06 04:46:59;;;;;;;18.80;15.10;;;;;;;6.91;100.00;96988.75;105664;1281;22499;-80
2022/11/06 04:49:34;;;;;;;24.40;16.80;;;;;;;6.95;100.00;96990.80;105625;1281;22503;-80
2022/11/06 04:52:08;;;;;;;23.60;16.60;;;;;;;6.99;100.00;96992.16;105693;1297;24223;-80
2022/11/06 04:54:40;;;;;;;25.30;17.20;;;;;;;7.01;100.00;96990.23;105669;1297;22478;-80
2022/11/06 04:57:12;;;;;;;25.10;17.70;;;;;;;7.02;100.00;96992.09;105615;1297;22435;-79
2022/11/06 04:59:43;;;;;;;21.10;16.50;;;;;;;7.04;100.00;96991.94;105630;1295;22458;-79
2022/11/06 05:02:14;;;;;;;25.70;18.20;;;;;;;7.06;100.00;96992.06;105648;1299;24279;-79
2022/11/06 05:04:45;;;;;;;19.60;15.10;;;;;;;7.06;100.00;96998.55;105658;1300;22552;-79
2022/11/06 05:07:17;;;;;;;19.40;15.70;;;;;;;7.07;100.00;97003.30;105551;1288;23362;-79
2022/11/06 05:09:48;;;;;;;19.50;14.20;;;;;;;7.10;100.00;97006.70;105629;1300;24332;-80
2022/11/06 05:12:19;;;;;;;20.70;14.60;;;;;;;7.11;100.00;97010.88;105672;1298;22458;-80
2022/11/06 05:14:52;;;;;;;22.20;15.30;;;;;;;7.07;100.00;97011.57;105654;1291;22508;-79
2022/11/06 05:17:23;;;;;;;20.50;14.70;;;;;;;7.04;100.00;97011.70;105571;1300;24301;-80
2022/11/06 05:19:54;;;;;;;19.60;15.30;;;;;;;7.05;100.00;97013.77;105663;1295;23253;-80
2022/11/06 05:25:14;;;;;;;17.90;14.10;;;;;;;7.09;100.00;97015.19;105678;1288;22436;-79
2022/11/06 05:27:45;;;;;;;20.90;14.50;;;;;;;7.10;100.00;97014.35;105621;1281;25361;-79
2022/11/06 05:30:16;;;;;;;21.60;16.80;;;;;;;7.11;100.00;97018.05;105666;1297;22481;-79
2022/11/06 05:32:47;;;;;;;19.40;15.00;;;;;;;7.10;100.00;97019.88;105677;1295;22885;-79
2022/11/06 05:35:20;;;;;;;19.70;14.30;;;;;;;7.10;100.00;97023.58;105686;1297;22466;-79
2022/11/06 05:37:58;;;;;;;23.20;16.70;;;;;;;7.09;100.00;97020.83;105627;1296;22461;-79
2022/11/06 05:40:30;;;;;;;27.70;17.90;;;;;;;7.03;100.00;97020.23;105659;1300;24247;-79
2022/11/06 05:43:01;;;;;;;25.70;18.50;;;;;;;6.96;100.00;97017.34;105713;1299;22473;-79
2022/11/06 05:45:32;;;;;;;27.40;19.20;;;;;;;6.91;100.00;97019.84;105666;1291;22463;-79
2022/11/06 05:48:03;;;;;;;25.80;19.10;;;;;;;6.84;100.00;97022.92;105611;1297;23958;-79
2022/11/06 05:50:34;;;;;;;27.00;19.80;;;;;;;6.83;100.00;97023.49;105654;1296;24451;-79
2022/11/06 05:53:06;;;;;;;30.40;20.20;;;;;;;6.83;100.00;97023.81;105659;1278;22710;-79
2022/11/06 05:55:39;;;;;;;26.90;19.10;;;;;;;6.79;100.00;97026.40;105655;1302;22507;-79
2022/11/06 05:58:10;;;;;;;27.20;19.90;;;;;;;6.76;100.00;97032.52;105588;1288;22460;-79
2022/11/06 06:00:41;;;;;;;25.50;18.30;;;;;;;6.76;100.00;97037.43;105640;1282;22746;-79
2022/11/06 06:03:12;;;;;;;29.80;19.20;;;;;;;6.79;100.00;97034.56;105666;1277;22630;-79
2022/11/06 06:05:43;;;;;;;28.40;19.80;;;;;;;6.81;100.00;97039.44;105668;1294;22460;-79
2022/11/06 06:08:15;;;;;;;27.50;20.20;;;;;;;6.80;100.00;97039.80;105626;1295;22526;-79
2022/11/06 06:10:47;;;;;;;26.90;19.30;;;;;;;6.81;100.00;97044.76;105651;1298;25541;-79
2022/11/06 06:13:18;;;;;;;25.40;19.40;;;;;;;6.83;100.00;97047.67;105664;1289;22540;-79
2022/11/06 06:15:50;;;;;;;29.00;19.50;;;;;;;6.84;100.00;97048.06;105656;1281;22557;-79
2022/11/06 06:18:21;;;;;;;29.20;20.60;;;;;;;6.87;100.00;97055.42;105586;1294;24683;-79
2022/11/06 06:20:52;;;;;;;25.00;19.40;;;;;;;6.91;100.00;97057.96;105656;1297;24576;-79
2022/11/06 06:23:24;;;;;;;29.30;20.30;;;;;;;6.95;100.00;97061.49;105651;1288;22454;-79
2022/11/06 06:25:56;;;;;;;30.30;21.30;;;;;;;6.97;100.00;97064.05;105660;1297;22658;-79
2022/11/06 06:28:27;;;;;;;27.00;19.00;;;;;;;6.94;100.00;97070.19;105616;1282;22444;-79
2022/11/06 06:30:59;;;;;;;28.70;21.00;;;;;;;6.90;100.00;97071.65;105630;1297;22487;-79
2022/11/06 06:33:30;;;;;;;30.80;22.30;;;;;;;6.84;100.00;97073.31;105656;1275;22468;-79
2022/11/06 06:36:05;;;;;;;34.60;22.40;;;;;;;6.81;100.00;97072.23;105704;1277;22490;-79
2022/11/06 06:38:36;;;;;;;28.20;21.20;;;;;;;6.80;100.00;97071.32;105636;1288;22466;-79
2022/11/06 06:41:09;;;;;;;29.80;21.10;;;;;;;6.80;100.00;97071.42;105668;1297;22468;-79
2022/11/06 06:43:40;;;;;;;32.10;21.00;;;;;;;6.78;100.00;97077.52;105639;1297;22466;-79
2022/11/06 06:46:11;;;;;;;31.60;21.50;;;;;;;6.76;100.00;97077.96;105637;1297;24404;-79
2022/11/06 06:48:45;;;;;;;32.20;21.70;;;;;;;6.78;100.00;97075.82;105629;1288;22489;-79
2022/11/06 06:51:16;;;;;;;31.70;21.50;;;;;;;6.78;100.00;97075.88;105658;1299;24245;-79
2022/11/06 06:53:49;;;;;;;29.50;20.20;;;;;;;6.82;100.00;97079.09;105655;1280;22481;-79
2022/11/06 06:56:20;;;;;;;31.00;20.80;;;;;;;6.90;100.00;97078.34;105635;1284;25361;-79
2022/11/06 06:58:55;;;;;;;28.10;22.20;;;;;;;6.93;100.00;97083.30;105667;1296;24324;-79
2022/11/06 07:01:26;;;;;;;31.50;21.30;;;;;;;6.94;100.00;97087.84;105643;1281;25292;-79
2022/11/06 07:03:58;;;;;;;32.90;21.20;;;;;;;6.89;100.00;97087.43;105677;1299;22626;-79
2022/11/06 07:06:29;;;;;;;38.50;22.80;;;;;;;6.89;100.00;97089.45;105649;1300;24245;-79
2022/11/06 07:09:00;;;;;;;29.90;22.50;;;;;;;6.90;100.00;97088.79;105627;1286;22608;-79
2022/11/06 07:11:31;;;;;;;30.50;22.20;;;;;;;6.87;100.00;97091.69;105644;1298;24495;-79
2022/11/06 07:14:04;;;;;;;29.50;21.30;;;;;;;6.86;100.00;97092.57;105674;1288;22538;-79
2022/11/06 07:16:35;;;;;;;31.10;22.60;;;;;;;6.85;100.00;97094.46;105643;1300;22470;-79
2022/11/06 07:19:06;;;;;;;30.50;21.30;;;;;;;6.89;100.00;97092.50;105609;1287;22473;-79
2022/11/06 07:21:38;;;;;;;34.40;21.10;;;;;;;6.89;100.00;97091.08;105671;1291;22470;-79
2022/11/06 07:24:09;;;;;;;32.50;21.80;;;;;;;6.90;100.00;97093.42;105651;1288;22467;-79
2022/11/06 07:26:41;;;;;;;36.70;23.20;;;;;;;6.91;100.00;97091.77;105703;1297;22894;-79
2022/11/06 07:29:12;;;;;;;36.00;23.20;;;;;;;6.93;100.00;97086.05;105608;1297;23163;-79
2022/11/06 07:31:43;;;;;;;34.50;24.20;;;;;;;7.00;100.00;97084.44;105662;1281;22628;-79
2022/11/06 07:34:17;;;;;;;31.50;22.60;;;;;;;7.01;100.00;97087.04;105667;1283;22454;-79
2022/11/06 07:36:48;;;;;;;30.80;23.00;;;;;;;7.02;100.00;97083.98;105714;1280;26282;-79
2022/11/06 07:39:19;;;;;;;30.10;20.90;;;;;;;7.06;100.00;97078.26;105626;1283;23740;-79
2022/11/06 07:41:51;;;;;;;33.50;21.80;;;;;;;7.07;100.00;97077.00;105653;1291;22470;-79
2022/11/06 07:44:22;;;;;;;30.20;21.70;;;;;;;7.04;100.00;97077.39;105653;1299;22530;-79
2022/11/06 07:46:54;;;;;;;30.60;21.30;;;;;;;6.98;100.00;97077.40;105635;1290;22469;-79
2022/11/06 07:49:25;;;;;;;35.30;23.50;;;;;;;6.95;100.00;97075.05;105611;1288;26434;-79
2022/11/06 07:51:57;;;;;;;35.40;23.20;;;;;;;6.94;100.00;97074.66;105670;1297;22476;-79
2022/11/06 07:54:28;;;;;;;35.00;22.50;;;;;;;6.92;100.00;97072.42;105653;1287;22462;-79
2022/11/06 07:57:00;;;;;;;36.00;23.60;;;;;;;6.92;100.00;97074.06;105673;1297;22654;-78
2022/11/06 07:59:31;;;;;;;37.50;23.90;;;;;;;6.89;100.00;97073.95;105614;1282;22468;-79
2022/11/06 08:02:03;;;;;;;30.90;22.60;;;;;;;6.90;100.00;97067.50;105674;1275;22497;-79
2022/11/06 08:04:34;;;;;;;30.50;22.40;;;;;;;6.98;100.00;97061.73;105641;1289;22453;-79
2022/11/06 08:07:06;;;;;;;32.50;21.00;;;;;;;7.07;100.00;97066.93;105657;1292;22463;-79
2022/11/06 08:09:40;;;;;;;31.90;21.50;;;;;;;7.16;100.00;97062.34;105632;1288;22439;-78
2022/11/06 08:12:13;;;;;;;32.60;23.00;;;;;;;7.25;100.00;97061.72;105667;1297;22422;-78
2022/11/06 08:14:44;;;;;;;30.30;20.80;;;;;;;7.30;100.00;97067.79;105693;1297;24340;-78
2022/11/06 08:17:16;;;;;;;31.40;22.40;;;;;;;7.31;100.00;97067.44;105607;1272;22455;-78
2022/11/06 08:19:50;;;;;;;36.40;23.10;;;;;;;7.27;100.00;97068.70;105659;1297;24320;-78
2022/11/06 08:22:22;;;;;;;30.80;23.90;;;;;;;7.27;100.00;97069.17;105661;1297;22480;-78
2022/11/06 08:24:53;;;;;;;33.60;22.30;;;;;;;7.26;100.00;97066.37;105672;1287;22474;-78
2022/11/06 08:27:24;;;;;;;28.70;20.10;;;;;;;7.25;100.00;97060.35;105608;1281;22570;-78
2022/11/06 08:29:56;;;;;;;32.60;22.40;;;;;;;7.26;100.00;97058.94;105636;1294;22654;-78
2022/11/06 08:32:27;;;;;;;29.90;22.30;;;;;;;7.27;100.00;97056.47;105651;1300;24286;-79
2022/11/06 08:34:59;;;;;;;29.30;22.40;;;;;;;7.33;100.00;97063.77;105631;1292;22554;-79
2022/11/06 08:37:30;;;;;;;28.30;20.40;;;;;;;7.42;100.00;97061.44;105575;1279;22478;-78
2022/11/06 08:40:03;;;;;;;31.80;20.50;;;;;;;7.48;100.00;97059.30;105625;1300;25122;-78
2022/11/06 08:42:34;;;;;;;26.60;20.30;;;;;;;7.48;100.00;97062.27;105682;1284;22586;-78
2022/11/06 08:45:09;;;;;;;27.90;19.70;;;;;;;7.52;100.00;97065.47;105669;1300;22466;-79
2022/11/06 08:47:40;;;;;;;26.70;20.00;;;;;;;7.61;100.00;97066.23;105600;1296;22545;-78
2022/11/06 08:50:12;;;;;;;29.20;19.60;;;;;;;7.71;100.00;97065.14;105704;1286;22524;-78
2022/11/06 08:52:43;;;;;;;31.30;20.50;;;;;;;7.80;100.00;97059.00;105641;1285;25247;-78
2022/11/06 08:55:15;;;;;;;27.60;19.90;;;;;;;7.95;100.00;97061.10;105653;1291;24234;-79
2022/11/06 08:57:48;;;;;;;25.80;18.50;;;;;;;8.06;100.00;97060.47;105619;1276;24253;-79
2022/11/06 09:00:21;;;;;;;28.30;19.00;;;;;;;8.00;100.00;97059.20;105668;1282;25287;-79
2022/11/06 09:02:57;;;;;;;33.40;20.80;;;;;;;7.92;100.00;97059.60;105717;1283;25332;-79
2022/11/06 09:05:30;;;;;;;32.40;21.20;;;;;;;7.98;100.00;97065.28;105662;1297;22776;-79
2022/11/06 09:08:01;;;;;;;27.70;19.20;;;;;;;8.00;100.00;97062.15;105629;1285;25254;-79
2022/11/06 09:10:32;;;;;;;32.50;20.40;;;;;;;8.08;100.00;97064.08;105669;1278;22471;-79
2022/11/06 09:13:04;;;;;;;28.90;19.90;;;;;;;8.15;100.00;97064.17;105771;1281;26412;-79
2022/11/06 09:15:36;;;;;;;28.70;19.20;;;;;;;8.22;100.00;97059.23;105780;1270;22490;-79
2022/11/06 09:18:10;;;;;;;24.50;19.30;;;;;;;8.30;100.00;97058.23;105733;1292;22538;-78
2022/11/06 09:20:41;;;;;;;26.40;18.20;;;;;;;8.38;100.00;97057.11;105761;1297;22470;-78
2022/11/06 09:23:13;;;;;;;27.90;18.30;;;;;;;8.46;100.00;97056.01;105772;1292;22422;-79
2022/11/06 09:25:44;;;;;;;24.40;16.20;;;;;;;8.52;100.00;97051.83;105768;1297;24257;-79
2022/11/06 09:28:16;;;;;;;24.90;16.40;;;;;;;8.60;100.00;97052.35;105709;1297;22467;-79
2022/11/06 09:30:49;;;;;;;24.00;17.70;;;;;;;8.70;100.00;97050.95;105759;1285;23046;-78
2022/11/06 09:33:21;;;;;;;24.50;17.60;;;;;;;8.82;100.00;97054.02;105770;1285;22475;-79
2022/11/06 09:35:53;;;;;;;23.00;15.90;;;;;;;8.90;100.00;97054.72;105770;1274;22487;-79
2022/11/06 09:38:24;;;;;;;25.00;16.70;;;;;;;8.96;100.00;97054.89;105723;1285;22462;-79
2022/11/06 09:41:01;;;;;;;21.60;15.00;;;;;;;9.05;100.00;97052.36;105794;1297;23464;-79
2022/11/06 09:43:44;;;;;;;24.00;16.10;;;;;;;9.13;100.00;97051.66;105732;1290;22465;-79
2022/11/06 09:46:24;;;;;;;24.20;15.20;;;;;;;9.24;100.00;97051.85;105814;1297;22442;-79
2022/11/06 09:49:02;;;;;;;24.30;15.70;;;;;;;9.36;100.00;97053.34;105742;1292;22462;-79
2022/11/06 09:51:42;;;;;;;28.60;16.60;;;;;;;9.44;100.00;97053.48;105758;1278;22486;-79
2022/11/06 09:54:17;;;;;;;21.70;15.00;;;;;;;9.53;100.00;97052.48;105773;1290;22563;-79
2022/11/06 09:56:53;;;;;;;23.10;15.20;;;;;;;9.63;100.00;97057.13;105788;1291;24307;-79
2022/11/06 09:59:25;;;;;;;22.60;15.30;;;;;;;9.69;100.00;97054.17;105755;1295;22811;-79
2022/11/06 10:02:00;;;;;;;20.40;13.90;;;;;;;9.76;100.00;97049.90;105806;1292;22487;-79
2022/11/06 10:04:40;;;;;;;22.40;14.40;;;;;;;9.83;99.87;97052.25;105820;1298;22899;-79
2022/11/06 10:07:26;;;;;;;21.90;13.70;;;;;;;9.86;99.49;97046.64;105766;1271;24640;-78
2022/11/06 10:09:59;;;;;;;16.30;11.00;;;;;;;9.89;99.13;97043.21;105794;1281;25218;-79
2022/11/06 10:12:43;;;;;;;16.20;11.40;;;;;;;9.91;98.72;97038.98;105791;1288;23026;-79
2022/11/06 10:15:23;;;;;;;15.20;10.70;;;;;;;9.92;98.37;97039.83;105735;1277;25267;-79
2022/11/06 10:18:05;;;;;;;18.50;11.80;;;;;;;9.89;97.75;97039.82;105652;1289;23185;-79
2022/11/06 10:20:49;;;;;;;17.50;13.10;;;;;;;9.91;97.61;97034.73;105688;1285;25431;-79
2022/11/06 10:23:29;;;;;;;18.90;12.60;;;;;;;9.93;97.57;97036.33;105698;1289;22466;-79
2022/11/06 10:26:10;;;;;;;14.70;10.70;;;;;;;9.95;96.60;97027.11;105685;1292;24648;-79
2022/11/06 10:29:14;;;;;;;15.50;10.40;;;;;;;9.84;95.71;97024.91;105647;1297;23180;-79
2022/11/06 10:31:56;;;;;;;18.40;11.60;;;;;;;10.00;96.68;97018.06;105686;1296;22464;-79
2022/11/06 10:34:35;;;;;;;18.10;12.50;;;;;;;10.14;96.21;97016.69;105690;1297;22518;-79
2022/11/06 10:37:12;;;;;;;16.10;10.70;;;;;;;10.00;94.59;97016.63;105652;1275;25657;-78
2022/11/06 10:39:48;;;;;;;17.40;11.50;;;;;;;9.85;94.18;97016.61;105693;1292;22493;-79
2022/11/06 10:42:22;;;;;;;19.20;11.80;;;;;;;9.77;94.31;97014.60;105667;1297;22486;-79
2022/11/06 10:44:58;;;;;;;18.40;11.60;;;;;;;9.61;93.84;97010.54;105661;1297;22509;-79
2022/11/06 10:47:38;;;;;;;15.30;11.10;;;;;;;9.57;94.59;97008.19;105603;1286;22473;-78
2022/11/06 10:50:14;;;;;;;12.80;9.40;;;;;;;9.54;94.76;97006.48;105683;1278;22476;-79
2022/11/06 10:52:55;;;;;;;16.50;10.00;;;;;;;9.52;94.73;97001.62;105668;1279;22459;-79
2022/11/06 10:55:38;;;;;;;;;;;;;;;9.50;94.47;96999.72;105666;1296;22448;-79
2022/11/06 10:58:13;;;;;;;14.20;8.90;;;;;;;9.42;93.56;96994.98;105601;1280;22483;-79
2022/11/06 11:00:45;;;;;;;15.20;9.00;;;;;;;9.29;93.51;96995.47;105662;1299;22452;-80
2022/11/06 11:03:28;;;;;;;14.50;8.60;;;;;;;9.40;94.17;96993.16;105662;1289;22478;-79
2022/11/06 11:06:00;;;;;;;16.10;11.00;;;;;;;9.43;93.70;96987.89;105700;1300;25379;-79
2022/11/06 11:08:36;;;;;;;15.30;11.40;;;;;;;9.48;93.88;96984.41;105645;1272;25461;-77
2022/11/06 11:11:18;;;;;;;17.30;11.50;;;;;;;9.45;93.05;96980.60;105688;1299;22476;-79
2022/11/06 11:13:51;;;;;;;14.20;9.20;;;;;;;9.47;92.96;96976.16;105677;1300;22492;-79
2022/11/06 11:16:27;;;;;;;16.60;9.70;;;;;;;9.51;93.13;96970.45;105633;1299;22455;-79
2022/11/06 11:19:23;;;;;;;13.10;10.00;;;;;;;9.65;93.58;96967.23;105634;1281;25368;-79
2022/11/06 11:22:00;;;;;;;15.50;11.50;;;;;;;9.78;93.42;96964.23;105653;1297;22457;-79
2022/11/06 11:24:31;;;;;;;15.80;12.40;;;;;;;9.80;93.50;96964.29;105659;1276;24306;-79
2022/11/06 11:27:05;;;;;;;17.30;12.00;;;;;;;9.79;93.59;96957.52;105684;1298;22492;-79
2022/11/06 11:29:48;;;;;;;16.60;11.30;;;;;;;9.71;92.02;96951.41;105675;1282;22474;-79
2022/11/06 11:32:22;;;;;;;15.40;10.70;;;;;;;9.46;92.01;96950.48;105657;1289;22586;-79
2022/11/06 11:34:57;;;;;;;15.40;10.70;;;;;;;9.50;92.90;96946.94;105717;1297;22586;-79
2022/11/06 11:37:32;;;;;;;14.10;10.50;;;;;;;9.57;93.20;96947.11;105658;1286;25442;-79
2022/11/06 11:40:22;;;;;;;13.80;9.60;;;;;;;9.63;93.26;96947.38;105668;1298;22473;-79
2022/11/06 11:42:53;;;;;;;14.30;9.90;;;;;;;9.64;93.08;96944.63;105674;1293;22437;-79
2022/11/06 11:45:25;;;;;;;15.10;10.40;;;;;;;9.69;93.05;96941.50;105654;1274;22473;-79
2022/11/06 11:48:14;;;;;;;15.30;9.60;;;;;;;9.71;92.81;96938.61;105589;1284;22468;-79
2022/11/06 11:50:45;;;;;;;16.80;10.00;;;;;;;9.69;92.35;96938.80;105704;1282;22477;-79
2022/11/06 11:53:22;;;;;;;17.90;10.70;;;;;;;9.55;91.33;96934.20;105657;1285;22506;-79
2022/11/06 11:55:54;;;;;;;15.70;10.40;;;;;;;9.33;90.77;96937.76;105670;1279;22505;-79
2022/11/06 11:58:29;;;;;;;15.10;10.10;;;;;;;9.16;90.86;96940.94;105612;1292;22481;-79